Time;durP1;ratioP1;P1;durP2;ratioP2;P2;SDS_P1;SDS_P2;PMS_P1;PMS_P2;Temp;Humidity;BMP_temperature;BMP_pressure;BME280_temperature;BME280_humidity;BME280_pressure;Samples;Min_cycle;Max_cycle;Signal;HPM_P1;HPM_P2
2023/05/07 00:01:34;;;;;;;6.13;2.70;;;;;;;11.70;37.92;101033.44;125075;1086;104209;-73
2023/05/07 00:04:03;;;;;;;4.87;2.80;;;;;;;11.65;37.90;101032.37;124998;1086;104223;-74
2023/05/07 00:06:33;;;;;;;5.70;2.47;;;;;;;11.64;37.84;101035.81;124904;1086;104209;-74
2023/05/07 00:09:04;;;;;;;5.57;2.60;;;;;;;11.61;37.88;101046.20;125000;1086;104363;-73
2023/05/07 00:11:33;;;;;;;4.30;2.30;;;;;;;11.56;37.80;101042.52;125056;1086;104225;-76
2023/05/07 00:14:01;;;;;;;5.77;2.87;;;;;;;11.55;37.88;101053.87;124982;1086;104364;-75
2023/05/07 00:16:30;;;;;;;8.65;3.00;;;;;;;11.54;37.99;101049.45;124920;1086;104228;-74
2023/05/07 00:18:58;;;;;;;7.07;2.60;;;;;;;11.48;38.02;101051.00;125009;1085;104290;-73
2023/05/07 00:21:26;;;;;;;4.53;2.43;;;;;;;11.47;38.18;101048.31;124911;1086;104346;-74
2023/05/07 00:23:55;;;;;;;9.20;3.17;;;;;;;11.43;38.16;101047.27;124909;1086;104398;-73
2023/05/07 00:26:24;;;;;;;3.63;2.47;;;;;;;11.35;38.32;101053.06;124928;1086;104362;-74
2023/05/07 00:28:53;;;;;;;5.50;2.83;;;;;;;11.31;38.31;101049.38;124979;1086;104241;-73
2023/05/07 00:31:21;;;;;;;7.50;3.33;;;;;;;11.27;38.54;101060.63;124943;1086;104222;-73
2023/05/07 00:33:50;;;;;;;6.33;3.00;;;;;;;11.21;38.58;101060.36;124723;1086;104666;-73
2023/05/07 00:36:18;;;;;;;4.43;2.73;;;;;;;11.14;38.68;101054.85;124919;1086;104334;-74
2023/05/07 00:38:47;;;;;;;5.17;2.60;;;;;;;11.15;38.37;101051.37;124886;1086;104226;-74
2023/05/07 00:41:15;;;;;;;7.13;2.77;;;;;;;11.11;38.37;101054.72;124924;1086;104287;-74
2023/05/07 00:43:45;;;;;;;5.67;2.67;;;;;;;11.11;38.64;101053.80;125014;1086;104366;-74
2023/05/07 00:46:15;;;;;;;9.87;2.70;;;;;;;11.09;38.60;101045.86;124884;1086;104398;-74
2023/05/07 00:48:45;;;;;;;4.93;2.80;;;;;;;11.05;39.04;101054.46;124954;1085;104308;-74
2023/05/07 00:51:14;;;;;;;5.73;3.00;;;;;;;11.04;38.64;101047.40;124964;1086;104212;-75
2023/05/07 00:53:42;;;;;;;5.07;2.83;;;;;;;11.04;38.98;101051.77;125000;1086;104241;-75
2023/05/07 00:56:11;;;;;;;8.13;2.67;;;;;;;11.02;39.16;101054.33;124913;1086;104321;-74
2023/05/07 00:58:41;;;;;;;6.67;3.03;;;;;;;10.96;39.36;101049.70;124939;1085;104350;-75
2023/05/07 01:01:10;;;;;;;4.05;2.80;;;;;;;10.94;39.29;101050.48;124896;1086;104395;-74
2023/05/07 01:03:38;;;;;;;7.73;2.97;;;;;;;10.90;39.11;101044.19;124882;1086;104286;-74
2023/05/07 01:06:08;;;;;;;9.40;3.27;;;;;;;10.90;39.40;101051.17;124924;1086;104241;-74
2023/05/07 01:08:39;;;;;;;7.25;3.10;;;;;;;10.92;39.23;101046.87;124969;1086;104238;-74
2023/05/07 01:11:09;;;;;;;11.50;3.20;;;;;;;10.87;39.62;101051.92;124969;1086;104350;-72
2023/05/07 01:13:38;;;;;;;8.33;2.80;;;;;;;10.88;39.85;101050.22;124986;1086;104481;-74
2023/05/07 01:16:09;;;;;;;8.87;3.00;;;;;;;10.84;39.43;101049.17;125088;1086;104258;-72
2023/05/07 01:18:37;;;;;;;7.45;3.00;;;;;;;10.83;39.34;101051.73;124660;1086;104272;-72
2023/05/07 01:21:07;;;;;;;8.67;3.13;;;;;;;10.81;39.40;101048.15;124675;1086;104309;-75
2023/05/07 01:23:36;;;;;;;4.83;2.87;;;;;;;10.76;40.04;101046.20;124930;1086;104253;-74
2023/05/07 01:26:05;;;;;;;5.90;2.83;;;;;;;10.75;39.60;101048.77;124893;1086;104299;-74
2023/05/07 01:28:34;;;;;;;5.13;2.83;;;;;;;10.73;40.03;101055.69;124904;1086;104353;-72
2023/05/07 01:31:05;;;;;;;10.23;3.43;;;;;;;10.72;39.52;101049.55;124952;1086;111159;-72
2023/05/07 01:33:38;;;;;;;6.77;2.90;;;;;;;10.65;40.12;101047.47;124847;1086;104401;-74
2023/05/07 01:36:10;;;;;;;5.90;2.97;;;;;;;10.61;40.20;101054.33;124974;1086;104225;-73
2023/05/07 01:38:40;;;;;;;5.87;2.80;;;;;;;10.58;40.28;101045.40;124910;1086;104318;-73
2023/05/07 01:41:08;;;;;;;6.87;3.20;;;;;;;10.53;40.51;101045.23;124994;1086;104341;-74
2023/05/07 01:43:37;;;;;;;6.47;3.00;;;;;;;10.53;40.64;101049.55;124879;1086;104225;-74
2023/05/07 01:46:06;;;;;;;7.80;3.10;;;;;;;10.53;40.06;101045.23;124922;1086;104241;-74
2023/05/07 01:48:35;;;;;;;9.03;3.03;;;;;;;10.52;40.88;101037.28;124928;1086;104416;-73
2023/05/07 01:51:04;;;;;;;5.73;3.20;;;;;;;10.51;40.76;101036.37;124846;1086;104379;-73
2023/05/07 01:53:37;;;;;;;9.87;2.97;;;;;;;10.52;40.13;101039.91;124894;1086;104370;-74
2023/05/07 01:56:07;;;;;;;7.20;3.10;;;;;;;10.50;40.17;101036.30;124677;1086;104318;-74
2023/05/07 01:58:36;;;;;;;5.87;2.90;;;;;;;10.47;40.48;101031.83;124920;1086;104213;-74
2023/05/07 02:01:05;;;;;;;6.67;2.87;;;;;;;10.43;40.28;101029.89;124715;1086;104449;-74
2023/05/07 02:03:34;;;;;;;6.40;3.00;;;;;;;10.43;40.26;101022.91;124876;1086;104302;-74
2023/05/07 02:06:07;;;;;;;6.63;2.70;;;;;;;10.45;40.26;101022.09;124963;1086;104306;-74
2023/05/07 02:08:39;;;;;;;8.20;3.07;;;;;;;10.45;40.37;101017.72;124886;1086;104219;-74
2023/05/07 02:11:07;;;;;;;9.30;3.27;;;;;;;10.42;40.38;101021.13;124912;1086;104352;-73
2023/05/07 02:13:37;;;;;;;6.33;3.00;;;;;;;10.40;40.50;101012.27;124886;1086;104273;-73
2023/05/07 02:16:07;;;;;;;6.60;3.00;;;;;;;10.42;40.54;101012.34;124843;1086;104392;-73
2023/05/07 02:18:35;;;;;;;4.47;2.87;;;;;;;10.34;41.18;101009.38;124976;1086;104177;-74
2023/05/07 02:21:04;;;;;;;7.47;3.30;;;;;;;10.28;41.25;101011.69;124749;1086;104376;-74
2023/05/07 02:23:33;;;;;;;8.93;3.00;;;;;;;10.25;40.81;101008.92;124798;1086;104315;-74
2023/05/07 02:26:05;;;;;;;7.70;3.20;;;;;;;10.24;40.88;101004.53;124937;1086;104280;-74
2023/05/07 02:28:35;;;;;;;7.27;3.37;;;;;;;10.21;40.98;101001.77;124962;1086;104411;-74
2023/05/07 02:31:05;;;;;;;10.10;3.70;;;;;;;10.17;41.80;101002.45;124771;1086;104312;-73
2023/05/07 02:33:35;;;;;;;9.77;3.20;;;;;;;10.13;41.32;101006.66;124873;1086;104229;-74
2023/05/07 02:36:09;;;;;;;9.20;3.40;;;;;;;10.09;41.65;101007.34;124693;1086;104344;-74
2023/05/07 02:38:40;;;;;;;6.35;3.20;;;;;;;10.04;42.08;101012.38;124724;1086;104271;-74
2023/05/07 02:41:08;;;;;;;8.67;3.17;;;;;;;9.98;41.83;101009.47;124704;1086;104315;-74
2023/05/07 02:43:37;;;;;;;7.47;3.50;;;;;;;9.97;41.64;100999.83;124946;1086;104324;-74
2023/05/07 02:46:08;;;;;;;7.47;3.43;;;;;;;9.93;42.22;101004.86;124695;1086;104711;-74
2023/05/07 02:48:39;;;;;;;14.38;3.80;;;;;;;9.83;42.28;101000.89;124976;1086;104360;-74
2023/05/07 02:51:08;;;;;;;6.37;3.20;;;;;;;9.77;41.99;101004.14;124917;1086;104356;-74
2023/05/07 02:53:37;;;;;;;9.07;3.50;;;;;;;9.72;42.69;101000.38;124853;1085;104491;-74
2023/05/07 02:56:07;;;;;;;9.35;3.40;;;;;;;9.66;42.17;101001.02;124940;1086;104238;-74
2023/05/07 02:58:35;;;;;;;6.87;3.23;;;;;;;9.70;42.90;100996.80;124975;1085;104334;-73
2023/05/07 03:01:04;;;;;;;7.93;3.87;;;;;;;9.74;42.74;100997.84;124904;1086;104266;-74
2023/05/07 03:03:37;;;;;;;7.67;3.50;;;;;;;9.78;42.57;101002.41;124883;1086;104238;-73
2023/05/07 03:06:06;;;;;;;8.10;3.60;;;;;;;9.76;42.90;100996.20;124697;1086;104458;-73
2023/05/07 03:08:36;;;;;;;10.03;3.50;;;;;;;9.73;42.97;101001.30;124909;1086;104296;-73
2023/05/07 03:11:05;;;;;;;7.53;3.60;;;;;;;9.75;43.12;101012.75;124928;1086;104433;-72
2023/05/07 03:13:33;;;;;;;9.33;4.10;;;;;;;9.76;43.22;101012.81;124905;1086;104373;-74
2023/05/07 03:16:02;;;;;;;11.50;3.47;;;;;;;9.77;43.23;101013.70;124951;1086;104309;-74
2023/05/07 03:18:30;;;;;;;6.60;3.47;;;;;;;9.80;43.24;101020.02;124887;1086;104427;-74
2023/05/07 03:20:59;;;;;;;8.27;3.53;;;;;;;9.83;43.46;101014.91;124756;1086;104283;-74
2023/05/07 03:23:27;;;;;;;10.63;3.57;;;;;;;9.87;42.73;101016.83;124944;1086;110736;-74
2023/05/07 03:25:56;;;;;;;8.23;3.67;;;;;;;9.93;43.40;101018.85;124955;1086;104338;-74
2023/05/07 03:28:24;;;;;;;5.63;3.40;;;;;;;9.99;43.05;101008.66;124765;1086;104427;-73
2023/05/07 03:30:57;;;;;;;8.53;3.47;;;;;;;10.06;43.06;101013.33;124886;1086;104408;-73
2023/05/07 03:33:27;;;;;;;7.73;3.20;;;;;;;10.10;42.89;101014.39;124930;1086;105430;-73
2023/05/07 03:35:56;;;;;;;7.50;3.37;;;;;;;10.16;43.50;101011.13;124885;1086;104366;-74
2023/05/07 03:38:26;;;;;;;9.33;3.63;;;;;;;10.19;42.89;101016.52;124936;1086;104302;-74
2023/05/07 03:40:55;;;;;;;9.00;3.40;;;;;;;10.26;42.93;101021.22;124871;1086;104276;-74
2023/05/07 03:43:23;;;;;;;8.87;3.27;;;;;;;10.31;42.96;101024.94;124892;1086;104388;-74
2023/05/07 03:45:58;;;;;;;7.73;3.67;;;;;;;10.30;42.99;101017.00;124901;1086;104627;-74
2023/05/07 03:48:28;;;;;;;7.90;3.60;;;;;;;10.32;43.14;101012.75;124990;1086;104287;-74
2023/05/07 03:50:59;;;;;;;8.30;3.87;;;;;;;10.33;43.16;101017.17;124704;1086;104401;-73
2023/05/07 03:53:30;;;;;;;6.20;3.50;;;;;;;10.34;43.68;101022.48;124894;1086;104290;-73
2023/05/07 03:55:58;;;;;;;5.47;3.30;;;;;;;10.40;43.04;101030.64;124984;1086;104350;-74
2023/05/07 03:58:27;;;;;;;8.67;3.53;;;;;;;10.45;43.04;101035.20;124910;1086;104358;-73
2023/05/07 04:01:12;;;;;;;11.87;3.60;;;;;;;10.51;43.04;101027.61;124947;1086;104366;-74
2023/05/07 04:03:41;;;;;;;7.70;3.92;;;;;;;10.55;43.23;101035.69;124913;1086;104414;-74
2023/05/07 04:06:10;;;;;;;12.07;3.50;;;;;;;10.58;43.60;101041.06;124919;1086;104356;-74
2023/05/07 04:08:39;;;;;;;8.17;3.63;;;;;;;10.59;43.25;101029.72;124714;1086;104423;-74
2023/05/07 04:11:08;;;;;;;8.33;3.57;;;;;;;10.57;43.98;101033.13;124962;1085;104369;-73
2023/05/07 04:13:37;;;;;;;8.33;3.57;;;;;;;10.57;43.47;101030.50;124945;1086;104287;-74
2023/05/07 04:16:08;;;;;;;10.33;3.67;;;;;;;10.57;43.72;101030.50;124966;1086;104290;-74
2023/05/07 04:18:38;;;;;;;11.13;3.60;;;;;;;10.56;43.60;101023.45;124767;1086;104245;-74
2023/05/07 04:21:14;;;;;;;7.45;3.80;;;;;;;10.58;43.46;101034.90;124838;1086;104347;-75
2023/05/07 04:23:42;;;;;;;9.20;3.67;;;;;;;10.60;44.01;101033.27;125119;1086;104312;-75
2023/05/07 04:26:12;;;;;;;7.30;3.53;;;;;;;10.66;43.67;101025.66;125070;1086;104624;-75
2023/05/07 04:28:43;;;;;;;5.80;3.57;;;;;;;10.69;44.17;101022.25;125124;1086;104728;-76
2023/05/07 04:31:12;;;;;;;7.70;3.90;;;;;;;10.74;43.99;101026.00;125208;1086;104427;-74
2023/05/07 04:33:40;;;;;;;7.35;3.50;;;;;;;10.78;44.07;101017.40;125038;1086;104389;-75
2023/05/07 04:36:11;;;;;;;7.17;3.70;;;;;;;10.83;43.70;101020.22;125250;1086;104488;-75
2023/05/07 04:38:46;;;;;;;8.03;3.60;;;;;;;10.86;43.84;101026.52;125037;1086;104350;-75
2023/05/07 04:41:16;;;;;;;8.67;3.90;;;;;;;10.90;44.11;101020.55;125019;1086;104231;-73
2023/05/07 04:43:47;;;;;;;10.50;3.75;;;;;;;10.97;44.26;101014.74;125080;1086;104258;-73
2023/05/07 04:46:16;;;;;;;9.93;3.97;;;;;;;11.02;43.87;101016.67;124921;1086;104360;-74
2023/05/07 04:48:45;;;;;;;8.05;3.60;;;;;;;11.06;43.67;101018.58;125072;1086;104228;-74
2023/05/07 04:51:13;;;;;;;7.90;3.83;;;;;;;11.12;44.29;101021.46;124791;1086;104299;-75
2023/05/07 04:53:43;;;;;;;9.37;4.30;;;;;;;11.12;44.14;101017.09;125108;1086;104207;-74
2023/05/07 04:56:11;;;;;;;9.90;3.70;;;;;;;11.15;44.56;101024.22;124795;1086;104488;-73
2023/05/07 04:58:42;;;;;;;7.53;3.60;;;;;;;11.21;44.82;101034.09;125110;1086;104388;-74
2023/05/07 05:01:11;;;;;;;8.17;3.57;;;;;;;11.27;44.25;101015.96;124870;1086;104481;-75
2023/05/07 05:03:40;;;;;;;7.43;3.50;;;;;;;11.42;44.46;101013.04;124986;1086;104249;-74
2023/05/07 05:06:10;;;;;;;8.67;3.90;;;;;;;11.51;44.40;101014.33;125018;1086;104245;-75
2023/05/07 05:08:38;;;;;;;9.37;4.23;;;;;;;11.57;44.23;101020.66;125194;1086;104360;-76
2023/05/07 05:11:07;;;;;;;7.90;3.90;;;;;;;11.65;44.84;101019.22;125269;1086;104395;-74
2023/05/07 05:13:37;;;;;;;7.60;3.70;;;;;;;11.64;44.30;101014.79;125104;1086;104170;-73
2023/05/07 05:16:12;;;;;;;11.73;4.40;;;;;;;11.72;44.39;101017.72;124983;1086;104232;-75
2023/05/07 05:18:41;;;;;;;11.20;4.27;;;;;;;11.77;44.43;101024.08;125040;1086;104232;-75
2023/05/07 05:21:10;;;;;;;5.53;3.77;;;;;;;11.83;44.42;101021.69;125134;1086;104353;-75
2023/05/07 05:23:39;;;;;;;8.63;3.83;;;;;;;11.90;44.33;101026.33;124923;1086;104386;-74
2023/05/07 05:26:08;;;;;;;8.80;4.20;;;;;;;11.91;44.34;101029.87;125037;1086;104281;-75
2023/05/07 05:28:36;;;;;;;10.63;4.10;;;;;;;11.96;44.54;101023.09;125193;1086;104206;-76
2023/05/07 05:31:06;;;;;;;10.23;4.30;;;;;;;12.02;44.59;101020.69;124992;1086;104345;-75
2023/05/07 05:33:36;;;;;;;10.07;4.20;;;;;;;12.07;44.48;101027.02;125016;1086;104329;-76
2023/05/07 05:36:09;;;;;;;12.37;4.07;;;;;;;12.12;44.86;101030.70;125027;1086;106985;-74
2023/05/07 05:38:39;;;;;;;8.70;4.50;;;;;;;12.13;44.59;101027.25;125134;1086;104685;-74
2023/05/07 05:41:08;;;;;;;10.07;4.30;;;;;;;12.12;44.50;101033.34;124984;1086;104296;-74
2023/05/07 05:43:37;;;;;;;11.53;4.43;;;;;;;12.13;44.63;101027.25;124878;1086;104288;-75
2023/05/07 05:46:06;;;;;;;8.37;4.37;;;;;;;12.22;44.73;101026.70;125051;1086;104225;-75
2023/05/07 05:48:34;;;;;;;10.57;4.27;;;;;;;12.33;45.00;101035.00;125005;1086;104309;-75
2023/05/07 05:51:03;;;;;;;7.97;4.27;;;;;;;12.41;44.81;101025.64;124975;1086;104279;-75
2023/05/07 05:53:32;;;;;;;8.70;4.43;;;;;;;12.48;44.80;101025.05;125093;1086;104360;-75
2023/05/07 05:56:01;;;;;;;13.35;4.80;;;;;;;12.56;45.09;101020.94;124942;1086;104228;-75
2023/05/07 05:58:31;;;;;;;11.80;4.40;;;;;;;12.67;44.82;101012.51;124898;1086;104331;-74
2023/05/07 06:01:03;;;;;;;7.93;4.03;;;;;;;12.72;44.79;101019.73;125021;1086;104382;-76
2023/05/07 06:03:32;;;;;;;10.93;4.17;;;;;;;12.76;44.63;101021.66;125092;1086;104318;-74
2023/05/07 06:06:02;;;;;;;11.40;4.60;;;;;;;12.75;44.84;101019.84;125022;1086;104289;-75
2023/05/07 06:08:31;;;;;;;8.27;4.07;;;;;;;12.74;44.65;101012.78;125084;1086;104235;-75
2023/05/07 06:11:02;;;;;;;9.70;4.23;;;;;;;12.82;44.58;101020.95;125120;1086;104261;-75
2023/05/07 06:13:31;;;;;;;14.17;4.40;;;;;;;12.95;44.60;101007.38;124995;1086;104421;-76
2023/05/07 06:16:00;;;;;;;9.40;4.50;;;;;;;13.16;44.76;101006.30;125013;1086;104315;-74
2023/05/07 06:18:29;;;;;;;8.87;4.50;;;;;;;13.36;44.91;101008.73;124860;1086;104287;-76
2023/05/07 06:20:57;;;;;;;11.27;4.67;;;;;;;13.58;45.03;101007.67;125022;1086;104199;-74
2023/05/07 06:23:28;;;;;;;10.53;4.40;;;;;;;13.76;44.47;101009.97;125337;1086;104292;-76
2023/05/07 06:25:57;;;;;;;12.37;3.97;;;;;;;13.93;44.71;101010.48;125083;1085;104231;-75
2023/05/07 06:28:30;;;;;;;11.03;4.73;;;;;;;14.07;44.29;101014.45;125029;1086;104297;-74
2023/05/07 06:31:13;;;;;;;11.27;4.50;;;;;;;14.13;44.16;101011.09;125030;1086;104257;-74
2023/05/07 06:33:42;;;;;;;9.30;4.40;;;;;;;14.12;44.26;101009.32;124948;1086;104466;-74
2023/05/07 06:36:11;;;;;;;8.20;3.97;;;;;;;14.11;44.41;101012.80;125021;1086;104370;-75
2023/05/07 06:38:40;;;;;;;7.67;3.67;;;;;;;13.99;44.50;100998.41;124960;1087;104353;-73
2023/05/07 06:41:09;;;;;;;11.27;3.80;;;;;;;13.94;44.45;100999.98;124963;1087;104270;-73
2023/05/07 06:43:39;;;;;;;7.97;4.17;;;;;;;13.86;44.48;101005.89;125090;1086;104289;-74
2023/05/07 06:46:34;;;;;;;10.33;3.80;;;;;;;13.72;44.56;101003.72;124991;1086;104366;-75
2023/05/07 06:49:03;;;;;;;11.40;4.37;;;;;;;13.67;43.84;100994.78;124897;1086;104501;-75
2023/05/07 06:51:31;;;;;;;10.30;3.90;;;;;;;13.67;44.24;100994.78;124921;1086;104234;-75
2023/05/07 06:54:04;;;;;;;6.60;3.70;;;;;;;13.60;44.47;100993.70;125054;1086;104361;-74
2023/05/07 06:56:33;;;;;;;9.47;4.60;;;;;;;13.64;44.43;101002.59;125007;1086;104280;-73
2023/05/07 06:59:03;;;;;;;10.00;4.23;;;;;;;13.70;44.44;100996.59;125093;1086;104214;-75
2023/05/07 07:01:35;;;;;;;8.60;4.10;;;;;;;13.87;45.06;100998.03;125117;1086;104158;-75
2023/05/07 07:04:05;;;;;;;7.67;4.10;;;;;;;14.08;44.79;100999.52;125219;1086;104718;-76
2023/05/07 07:06:34;;;;;;;8.43;4.00;;;;;;;14.16;44.44;100995.34;125241;1086;104232;-73
2023/05/07 07:09:03;;;;;;;9.40;4.20;;;;;;;14.32;43.80;100999.30;124979;1085;104287;-74
2023/05/07 07:11:32;;;;;;;9.73;4.20;;;;;;;14.44;44.49;101002.30;125016;1086;104363;-75
2023/05/07 07:14:01;;;;;;;9.53;4.40;;;;;;;14.47;44.19;100988.30;124937;1086;104306;-75
2023/05/07 07:16:30;;;;;;;6.70;4.03;;;;;;;14.53;44.75;100991.98;124962;1086;104449;-76
2023/05/07 07:18:59;;;;;;;10.27;4.30;;;;;;;14.63;44.03;100987.91;125101;1086;104292;-76
2023/05/07 07:21:28;;;;;;;11.77;4.27;;;;;;;14.72;44.12;100988.16;125139;1086;104354;-76
2023/05/07 07:23:57;;;;;;;9.20;3.80;;;;;;;14.91;44.67;100976.31;125058;1086;104386;-76
2023/05/07 07:26:25;;;;;;;8.07;4.20;;;;;;;15.10;44.52;100982.06;125111;1086;104363;-76
2023/05/07 07:28:54;;;;;;;9.03;4.30;;;;;;;15.27;43.42;100978.08;125127;1086;104366;-76
2023/05/07 07:31:24;;;;;;;8.40;4.27;;;;;;;15.45;44.29;100972.31;125190;1086;104231;-74
2023/05/07 07:33:53;;;;;;;6.83;4.00;;;;;;;15.67;44.17;100975.45;125101;1086;104232;-76
2023/05/07 07:36:21;;;;;;;10.57;4.60;;;;;;;15.80;43.57;100969.62;125007;1086;104301;-75
2023/05/07 07:38:50;;;;;;;8.37;3.70;;;;;;;16.01;43.63;100965.63;125145;1086;104240;-75
2023/05/07 07:41:19;;;;;;;12.70;3.90;;;;;;;16.20;43.85;100960.72;125110;1086;104228;-76
2023/05/07 07:43:48;;;;;;;10.83;4.57;;;;;;;16.31;42.97;100956.52;125029;1086;104425;-75
2023/05/07 07:46:17;;;;;;;11.30;4.20;;;;;;;16.34;43.29;100946.87;124965;1086;104278;-73
2023/05/07 07:48:45;;;;;;;6.97;4.00;;;;;;;16.41;43.21;100950.55;124967;1086;105343;-75
2023/05/07 07:51:14;;;;;;;10.00;4.00;;;;;;;16.58;43.18;100956.16;125007;1086;104231;-75
2023/05/07 07:53:43;;;;;;;11.33;4.30;;;;;;;16.72;42.91;100953.77;125088;1086;104427;-76
2023/05/07 07:56:12;;;;;;;7.40;4.17;;;;;;;16.82;42.43;100950.39;125055;1086;104312;-76
2023/05/07 07:58:40;;;;;;;10.13;4.00;;;;;;;16.85;42.43;100947.80;125144;1086;104296;-75
2023/05/07 08:01:09;;;;;;;9.87;4.00;;;;;;;17.00;42.46;100952.52;124854;1086;104236;-75
2023/05/07 08:03:38;;;;;;;8.97;3.80;;;;;;;17.25;42.09;100953.79;124812;1086;104341;-75
2023/05/07 08:06:07;;;;;;;10.10;4.43;;;;;;;17.24;41.80;100953.77;124894;1086;104716;-75
2023/05/07 08:08:36;;;;;;;5.33;3.80;;;;;;;17.38;41.92;100961.94;124949;1086;104274;-76
2023/05/07 08:11:05;;;;;;;8.70;3.60;;;;;;;17.51;42.16;100961.23;124931;1086;104299;-76
2023/05/07 08:13:35;;;;;;;7.90;3.93;;;;;;;17.67;41.57;100958.80;125141;1085;104345;-74
2023/05/07 08:16:04;;;;;;;10.10;4.43;;;;;;;17.66;41.39;100959.69;125036;1086;104300;-75
2023/05/07 08:18:33;;;;;;;7.13;3.57;;;;;;;17.53;41.32;100962.17;124902;1086;104350;-75
2023/05/07 08:21:03;;;;;;;6.70;4.00;;;;;;;17.47;41.16;100962.08;125019;1086;104366;-75
2023/05/07 08:23:34;;;;;;;8.97;3.40;;;;;;;17.49;41.11;100959.45;124958;1086;104338;-74
2023/05/07 08:26:03;;;;;;;8.80;3.77;;;;;;;17.44;40.97;100962.03;125050;1086;104344;-75
2023/05/07 08:28:32;;;;;;;9.07;3.80;;;;;;;17.52;41.05;100949.77;125041;1086;104238;-74
2023/05/07 08:31:00;;;;;;;9.17;3.57;;;;;;;17.46;40.73;100949.67;125092;1085;104204;-76
2023/05/07 08:33:29;;;;;;;10.17;4.10;;;;;;;17.32;40.53;100948.58;125195;1086;104363;-75
2023/05/07 08:35:58;;;;;;;10.27;4.10;;;;;;;17.33;40.82;100953.91;125111;1086;104360;-75
2023/05/07 08:38:27;;;;;;;8.80;3.40;;;;;;;17.43;41.03;100945.20;125175;1086;105632;-74
2023/05/07 08:40:56;;;;;;;10.37;3.50;;;;;;;17.65;40.88;100939.32;124991;1086;104223;-76
2023/05/07 08:43:28;;;;;;;9.57;3.47;;;;;;;17.77;40.56;100931.53;125325;1085;104347;-75
2023/05/07 08:46:01;;;;;;;8.97;3.70;;;;;;;17.83;40.29;100920.98;125127;1086;104334;-73
2023/05/07 08:48:31;;;;;;;8.80;3.70;;;;;;;17.78;40.08;100926.23;125083;1086;104254;-76
2023/05/07 08:51:06;;;;;;;8.20;3.60;;;;;;;17.76;39.89;100925.34;124984;1086;104257;-74
2023/05/07 08:53:37;;;;;;;4.90;3.70;;;;;;;17.82;39.92;100931.59;124931;1086;104270;-75
2023/05/07 08:56:08;;;;;;;6.17;3.47;;;;;;;17.93;40.27;100929.98;125016;1086;104347;-75
2023/05/07 08:58:37;;;;;;;7.13;3.53;;;;;;;17.95;39.88;100928.23;125150;1086;104229;-74
2023/05/07 09:01:09;;;;;;;7.37;3.40;;;;;;;17.79;39.51;100925.37;125066;1086;104231;-75
2023/05/07 09:03:39;;;;;;;7.87;3.60;;;;;;;17.70;39.40;100929.65;125023;1086;104373;-75
2023/05/07 09:06:08;;;;;;;9.87;3.57;;;;;;;17.60;39.09;100929.52;125152;1086;104296;-76
2023/05/07 09:08:37;;;;;;;6.65;3.60;;;;;;;17.64;39.55;100922.52;124879;1086;104561;-76
2023/05/07 09:11:06;;;;;;;11.43;4.00;;;;;;;17.57;39.43;100925.95;125178;1086;104370;-74
2023/05/07 09:13:34;;;;;;;6.35;3.25;;;;;;;17.63;39.82;100922.50;124979;1086;104293;-74
2023/05/07 09:16:12;;;;;;;8.23;3.47;;;;;;;17.76;39.57;100924.42;125070;1086;104321;-75
2023/05/07 09:18:46;;;;;;;5.93;3.40;;;;;;;17.94;39.52;100916.73;125185;1086;104802;-73
2023/05/07 09:21:16;;;;;;;;;;;;;;;18.10;39.55;100916.91;125005;1086;104407;-75
2023/05/07 09:23:45;;;;;;;7.90;3.70;;;;;;;18.18;39.41;100920.53;125168;1086;104235;-73
2023/05/07 09:26:21;;;;;;;7.10;3.30;;;;;;;18.31;39.78;100916.27;124979;1086;104258;-74
2023/05/07 09:28:51;;;;;;;7.60;3.30;;;;;;;18.47;38.92;100901.37;125112;1086;104292;-75
2023/05/07 09:31:23;;;;;;;7.60;3.43;;;;;;;18.62;39.10;100901.52;125020;1086;104357;-73
2023/05/07 09:33:52;;;;;;;7.87;3.47;;;;;;;18.75;38.49;100906.94;125050;1086;104414;-75
2023/05/07 09:36:22;;;;;;;9.80;3.47;;;;;;;18.73;38.50;100903.36;125088;1086;104287;-75
2023/05/07 09:38:51;;;;;;;6.90;3.20;;;;;;;18.76;38.69;100904.30;124974;1086;104245;-74
2023/05/07 09:41:20;;;;;;;6.30;3.23;;;;;;;18.67;37.73;100910.41;125140;1086;104164;-74
2023/05/07 09:44:11;;;;;;;6.40;3.57;;;;;;;18.40;37.75;100896.86;125022;1085;104258;-75
2023/05/07 09:46:47;;;;;;;9.63;3.43;;;;;;;18.30;37.95;100891.45;125109;1086;104162;-75
2023/05/07 09:49:29;;;;;;;7.67;3.17;;;;;;;18.29;38.21;100888.78;125058;1086;104303;-76
2023/05/07 09:52:05;;;;;;;9.00;3.80;;;;;;;18.31;37.88;100898.55;125180;1086;104717;-76
2023/05/07 09:54:37;;;;;;;5.00;3.40;;;;;;;18.24;37.63;100888.73;125138;1086;104238;-75
2023/05/07 09:57:07;;;;;;;8.57;3.37;;;;;;;18.18;37.61;100896.62;125007;1086;104325;-75
2023/05/07 09:59:38;;;;;;;10.53;3.20;;;;;;;18.09;36.84;100900.09;125036;1086;104377;-74
2023/05/07 10:02:11;;;;;;;8.13;3.37;;;;;;;18.09;37.20;100889.48;125086;1086;104238;-75
2023/05/07 10:04:48;;;;;;;6.80;3.40;;;;;;;18.32;37.90;100888.81;125217;1086;104205;-76
2023/05/07 10:07:20;;;;;;;5.93;3.40;;;;;;;18.47;37.27;100888.08;124871;1086;104721;-75
2023/05/07 10:09:50;;;;;;;8.90;3.60;;;;;;;18.56;37.48;100877.54;125064;1085;104734;-75
2023/05/07 10:12:37;;;;;;;7.13;3.10;;;;;;;18.64;37.53;100867.86;125219;1086;104379;-75
2023/05/07 10:15:10;;;;;;;6.20;3.20;;;;;;;18.65;37.72;100866.08;125024;1086;104344;-76
2023/05/07 10:17:40;;;;;;;5.78;3.47;;;;;;;18.77;37.25;100862.64;124935;1086;104456;-75
2023/05/07 10:20:10;;;;;;;10.20;3.53;;;;;;;18.87;37.33;100861.88;124933;1086;104376;-75
2023/05/07 10:22:44;;;;;;;7.40;3.07;;;;;;;18.98;37.46;100857.52;124982;1086;104277;-75
2023/05/07 10:25:18;;;;;;;8.50;3.17;;;;;;;19.03;36.79;100858.43;124885;1085;104338;-75
2023/05/07 10:27:48;;;;;;;10.68;3.37;;;;;;;19.15;37.05;100848.74;125096;1086;104363;-76
2023/05/07 10:30:27;;;;;;;5.10;3.13;;;;;;;19.17;36.20;100847.00;125089;1086;104206;-76
2023/05/07 10:33:05;;;;;;;8.77;3.00;;;;;;;19.14;36.22;100844.33;125081;1086;104449;-75
2023/05/07 10:35:41;;;;;;;9.37;3.10;;;;;;;19.13;36.07;100837.21;124870;1086;104309;-75
2023/05/07 10:38:11;;;;;;;7.77;2.90;;;;;;;19.19;36.75;100837.25;125121;1086;104375;-75
2023/05/07 10:40:41;;;;;;;6.27;3.10;;;;;;;19.21;36.47;100843.45;125047;1086;104257;-77
2023/05/07 10:43:10;;;;;;;6.30;3.00;;;;;;;19.10;36.02;100838.07;125157;1086;104225;-74
2023/05/07 10:46:35;;;;;;;6.97;2.97;;;;;;;19.22;34.83;100834.61;125073;1086;104212;-73
2023/05/07 10:49:19;;;;;;;6.23;3.00;;;;;;;19.25;35.10;100845.27;124901;1086;104341;-75
2023/05/07 10:52:17;;;;;;;3.97;2.90;;;;;;;19.11;35.32;100846.97;125055;1086;104398;-76
2023/05/07 10:55:25;;;;;;;6.17;3.10;;;;;;;19.04;35.80;100841.61;125111;1086;104449;-75
2023/05/07 10:58:24;;;;;;;6.00;2.73;;;;;;;19.15;35.51;100848.74;125131;1086;104225;-76
2023/05/07 11:00:58;;;;;;;7.47;3.37;;;;;;;19.27;36.22;100848.81;124921;1086;104376;-74
2023/05/07 11:03:31;;;;;;;5.97;3.13;;;;;;;19.30;36.38;100845.30;125008;1086;104748;-75
2023/05/07 11:06:13;;;;;;;7.63;3.03;;;;;;;19.36;35.41;100847.98;125033;1086;104440;-74
2023/05/07 11:08:56;;;;;;;7.17;2.83;;;;;;;19.43;35.28;100838.25;125003;1085;104376;-74
2023/05/07 11:11:55;;;;;;;7.93;2.93;;;;;;;19.50;35.08;100840.07;124874;1086;104405;-73
2023/05/07 11:14:49;;;;;;;8.40;3.00;;;;;;;19.51;35.26;100834.76;124860;1086;104229;-76
2023/05/07 11:17:26;;;;;;;6.17;2.90;;;;;;;19.49;35.33;100838.28;125107;1086;104695;-74
2023/05/07 11:20:04;;;;;;;4.93;2.87;;;;;;;19.42;35.03;100844.48;124932;1086;104501;-75
2023/05/07 11:22:49;;;;;;;6.80;3.20;;;;;;;19.36;35.13;100832.02;125475;1085;104238;-75
2023/05/07 11:25:30;;;;;;;8.87;3.00;;;;;;;19.44;34.96;100829.40;124934;1086;104341;-77
2023/05/07 11:28:10;;;;;;;4.83;2.70;;;;;;;19.50;34.67;100827.64;124932;1086;104369;-76